createdAt,value
2022-11-15T00:00:37.000Z,0
2022-11-15T00:01:53.000Z,0
2022-11-15T00:03:09.000Z,0
2022-11-15T00:04:25.000Z,0
2022-11-15T00:05:41.000Z,0
2022-11-15T00:06:57.000Z,0
2022-11-15T00:08:14.000Z,0
2022-11-15T00:09:30.000Z,0
2022-11-15T00:10:46.000Z,0
2022-11-15T00:12:02.000Z,0
2022-11-15T00:13:18.000Z,0
2022-11-15T00:14:35.000Z,0
2022-11-15T00:15:50.000Z,0
2022-11-15T00:17:06.000Z,0
2022-11-15T00:18:22.000Z,0
2022-11-15T00:19:38.000Z,0
2022-11-15T00:20:55.000Z,0
2022-11-15T00:22:11.000Z,0
2022-11-15T00:23:27.000Z,0
2022-11-15T00:24:43.000Z,0
2022-11-15T00:25:59.000Z,0
2022-11-15T00:27:15.000Z,0
2022-11-15T00:28:32.000Z,0
2022-11-15T00:29:48.000Z,0
2022-11-15T00:31:04.000Z,0
2022-11-15T00:32:19.000Z,0
2022-11-15T00:33:36.182Z,0
2022-11-15T00:34:52.000Z,0
2022-11-15T00:36:08.000Z,0
2022-11-15T00:37:24.000Z,0
2022-11-15T00:38:40.000Z,0
2022-11-15T00:39:56.000Z,0
2022-11-15T00:41:13.000Z,0
2022-11-15T00:42:29.000Z,0
2022-11-15T00:43:45.000Z,0
2022-11-15T00:45:01.000Z,0
2022-11-15T00:46:17.000Z,0
2022-11-15T00:47:34.000Z,0
2022-11-15T00:48:49.000Z,0
2022-11-15T00:50:05.000Z,0
2022-11-15T00:51:21.000Z,0
2022-11-15T00:52:37.000Z,0
2022-11-15T00:53:53.000Z,0
2022-11-15T00:55:10.000Z,0
2022-11-15T00:56:26.000Z,0
2022-11-15T00:57:42.000Z,0
2022-11-15T00:58:58.000Z,0
2022-11-15T01:00:14.000Z,0
2022-11-15T01:01:31.000Z,0
2022-11-15T01:02:47.000Z,0
2022-11-15T01:04:03.000Z,0
2022-11-15T01:05:18.000Z,0
2022-11-15T01:06:34.000Z,0
2022-11-15T01:07:51.000Z,0
2022-11-15T01:09:07.000Z,0
2022-11-15T01:10:23.000Z,0
2022-11-15T01:11:39.000Z,0
2022-11-15T01:12:55.000Z,0
2022-11-15T01:14:12.000Z,0
2022-11-15T01:15:28.000Z,0
2022-11-15T01:16:44.000Z,0
2022-11-15T01:18:00.000Z,0
2022-11-15T01:19:16.000Z,0
2022-11-15T01:20:32.000Z,0
2022-11-15T01:21:48.000Z,0
2022-11-15T01:23:04.000Z,0
2022-11-15T01:24:20.000Z,0
2022-11-15T01:25:36.000Z,0
2022-11-15T01:26:52.000Z,0
2022-11-15T01:28:09.000Z,0
2022-11-15T01:29:25.000Z,0
2022-11-15T01:30:41.000Z,0
2022-11-15T01:31:57.000Z,0
2022-11-15T01:33:13.000Z,0
2022-11-15T01:34:30.000Z,0
2022-11-15T01:35:46.000Z,0
2022-11-15T01:37:02.000Z,0
2022-11-15T01:38:17.000Z,0
2022-11-15T01:39:33.000Z,0
2022-11-15T01:40:50.000Z,0
2022-11-15T01:42:06.000Z,0
2022-11-15T01:43:22.000Z,0
2022-11-15T01:44:38.000Z,0
2022-11-15T01:45:54.000Z,0
2022-11-15T01:47:10.000Z,0
2022-11-15T01:48:27.000Z,0
2022-11-15T01:49:43.000Z,0
2022-11-15T01:50:59.000Z,0
2022-11-15T01:52:15.000Z,0
2022-11-15T01:53:31.000Z,0
2022-11-15T01:54:47.000Z,0
2022-11-15T01:56:03.000Z,0
2022-11-15T01:57:19.000Z,0
2022-11-15T01:58:35.000Z,0
2022-11-15T01:59:51.000Z,0
2022-11-15T02:01:08.000Z,0
2022-11-15T02:02:24.000Z,0
2022-11-15T02:03:40.000Z,0
2022-11-15T02:04:56.000Z,0
2022-11-15T02:06:12.000Z,0
2022-11-15T02:07:29.000Z,0
2022-11-15T02:08:45.000Z,0
2022-11-15T02:10:01.000Z,0
2022-11-15T02:11:16.000Z,0
2022-11-15T02:12:32.000Z,0
2022-11-15T02:13:48.000Z,0
2022-11-15T02:15:05.000Z,0
2022-11-15T02:16:21.000Z,0
2022-11-15T02:17:37.000Z,0
2022-11-15T02:18:53.000Z,0
2022-11-15T02:20:09.000Z,0
2022-11-15T02:21:26.000Z,0
2022-11-15T02:22:42.000Z,0
2022-11-15T02:23:58.000Z,0
2022-11-15T02:25:14.000Z,0
2022-11-15T02:26:30.000Z,0
2022-11-15T02:27:46.000Z,0
2022-11-15T02:29:02.000Z,0
2022-11-15T02:30:18.000Z,0
2022-11-15T02:31:34.000Z,0
2022-11-15T02:32:50.000Z,0
2022-11-15T02:34:07.000Z,0
2022-11-15T02:35:23.000Z,0
2022-11-15T02:36:39.616Z,0
2022-11-15T02:37:55.000Z,0
2022-11-15T02:39:11.000Z,0
2022-11-15T02:40:27.000Z,0
2022-11-15T02:41:44.000Z,0
2022-11-15T02:43:00.000Z,0
2022-11-15T02:44:15.000Z,0
2022-11-15T02:45:31.000Z,0
2022-11-15T02:46:47.000Z,0
2022-11-15T02:48:04.000Z,0
2022-11-15T02:49:20.000Z,0
2022-11-15T02:50:36.000Z,0
2022-11-15T02:51:51.000Z,0
2022-11-15T02:53:07.000Z,0
2022-11-15T02:54:24.000Z,0
2022-11-15T02:55:40.000Z,0
2022-11-15T02:56:56.000Z,0
2022-11-15T02:58:12.000Z,0
2022-11-15T02:59:28.000Z,0
2022-11-15T03:00:45.000Z,0
2022-11-15T03:02:01.000Z,0
2022-11-15T03:03:17.000Z,0
2022-11-15T03:04:33.000Z,0
2022-11-15T03:05:49.000Z,0
2022-11-15T03:07:05.000Z,0
2022-11-15T03:08:21.000Z,0
2022-11-15T03:09:37.000Z,0
2022-11-15T03:10:53.000Z,0
2022-11-15T03:12:09.000Z,0
2022-11-15T03:13:25.000Z,0
2022-11-15T03:14:42.000Z,0
2022-11-15T03:15:58.000Z,0
2022-11-15T03:17:14.000Z,0
2022-11-15T03:18:30.000Z,0
2022-11-15T03:19:46.000Z,0
2022-11-15T03:21:03.000Z,0
2022-11-15T03:22:19.000Z,0
2022-11-15T03:23:35.000Z,0
2022-11-15T03:24:50.000Z,0
2022-11-15T03:26:06.000Z,0
2022-11-15T03:27:23.000Z,0
2022-11-15T03:28:39.000Z,0
2022-11-15T03:29:55.000Z,0
2022-11-15T03:31:11.000Z,0
2022-11-15T03:32:27.000Z,0
2022-11-15T03:33:43.000Z,0
2022-11-15T03:35:00.000Z,0
2022-11-15T03:36:16.000Z,0
2022-11-15T03:37:32.000Z,0
2022-11-15T03:38:48.000Z,0
2022-11-15T03:40:04.000Z,0
2022-11-15T03:41:20.000Z,0
2022-11-15T03:42:36.000Z,0
2022-11-15T03:43:52.000Z,0
2022-11-15T03:45:08.000Z,0
2022-11-15T03:46:24.000Z,0
2022-11-15T03:47:41.285Z,0
2022-11-15T03:48:57.000Z,0
2022-11-15T03:50:13.000Z,0
2022-11-15T03:51:29.000Z,0
2022-11-15T03:52:45.000Z,0
2022-11-15T03:54:01.000Z,0
2022-11-15T03:55:18.000Z,0
2022-11-15T03:56:34.000Z,0
2022-11-15T03:57:49.000Z,0
2022-11-15T03:59:05.000Z,0
2022-11-15T04:00:21.000Z,0
2022-11-15T04:01:38.000Z,0
2022-11-15T04:02:54.000Z,0
2022-11-15T04:04:10.000Z,0
2022-11-15T04:05:26.000Z,0
2022-11-15T04:06:42.000Z,0
2022-11-15T04:07:59.000Z,0
2022-11-15T04:09:15.000Z,0
2022-11-15T04:10:31.000Z,0
2022-11-15T04:11:47.000Z,0
2022-11-15T04:13:03.000Z,0
2022-11-15T04:14:19.000Z,0
2022-11-15T04:15:35.000Z,0
2022-11-15T04:16:51.000Z,0
2022-11-15T04:18:07.000Z,0
2022-11-15T04:19:23.000Z,0
2022-11-15T04:20:40.000Z,0
2022-11-15T04:21:56.000Z,0
2022-11-15T04:23:12.000Z,0
2022-11-15T04:24:28.000Z,0
2022-11-15T04:25:44.000Z,0
2022-11-15T04:27:00.000Z,0
2022-11-15T04:28:17.000Z,0
2022-11-15T04:29:33.000Z,0
2022-11-15T04:30:48.000Z,0
2022-11-15T04:32:04.000Z,0
2022-11-15T04:33:20.000Z,0
2022-11-15T04:34:37.000Z,0
2022-11-15T04:35:53.000Z,0
2022-11-15T04:37:09.000Z,0
2022-11-15T04:38:25.000Z,0
2022-11-15T04:39:41.000Z,0
2022-11-15T04:40:58.000Z,0
2022-11-15T04:42:14.000Z,0
2022-11-15T04:43:30.000Z,0
2022-11-15T04:44:46.000Z,0
2022-11-15T04:46:02.000Z,0
2022-11-15T04:47:17.000Z,0
2022-11-15T04:48:34.000Z,0
2022-11-15T04:49:50.000Z,0
2022-11-15T04:51:06.000Z,0
2022-11-15T04:52:22.000Z,0
2022-11-15T04:53:38.000Z,0
2022-11-15T04:54:55.000Z,0
2022-11-15T04:56:11.000Z,0
2022-11-15T04:57:27.000Z,0
2022-11-15T04:58:43.000Z,0
2022-11-15T04:59:59.000Z,0
2022-11-15T05:01:16.000Z,0
2022-11-15T05:02:32.000Z,0
2022-11-15T05:03:48.000Z,0
2022-11-15T05:05:03.000Z,0
2022-11-15T05:06:19.000Z,0
2022-11-15T05:07:36.000Z,0
2022-11-15T05:08:52.000Z,0
2022-11-15T05:10:08.000Z,0
2022-11-15T05:11:24.000Z,0
2022-11-15T05:12:40.000Z,0
2022-11-15T05:13:56.000Z,0
2022-11-15T05:15:13.000Z,0
2022-11-15T05:16:29.000Z,0
2022-11-15T05:17:45.749Z,0
2022-11-15T05:19:01.000Z,0
2022-11-15T05:20:17.000Z,0
2022-11-15T05:21:33.000Z,0
2022-11-15T05:22:49.000Z,0
2022-11-15T05:24:05.000Z,0
2022-11-15T05:25:21.000Z,0
2022-11-15T05:26:37.000Z,0
2022-11-15T05:27:54.000Z,0
2022-11-15T05:29:10.000Z,0
2022-11-15T05:30:26.000Z,0
2022-11-15T05:31:42.000Z,0
2022-11-15T05:32:58.000Z,0
2022-11-15T05:34:14.000Z,0
2022-11-15T05:35:31.000Z,0
2022-11-15T05:36:47.000Z,0
2022-11-15T05:38:02.000Z,0
2022-11-15T05:39:18.000Z,0
2022-11-15T05:40:34.000Z,0
2022-11-15T05:41:51.000Z,0
2022-11-15T05:43:07.000Z,0
2022-11-15T05:44:23.000Z,0
2022-11-15T05:45:39.000Z,0
2022-11-15T05:46:55.000Z,0
2022-11-15T05:48:12.000Z,0
2022-11-15T05:49:28.000Z,0
2022-11-15T05:50:44.000Z,0
2022-11-15T05:52:00.000Z,0
2022-11-15T05:53:16.000Z,0
2022-11-15T05:54:31.000Z,0
2022-11-15T05:55:48.000Z,0
2022-11-15T05:57:04.000Z,0
2022-11-15T05:58:20.000Z,0
2022-11-15T05:59:36.000Z,0
2022-11-15T06:00:52.000Z,0
2022-11-15T06:02:09.000Z,0
2022-11-15T06:03:25.000Z,0
2022-11-15T06:04:41.000Z,0
2022-11-15T06:05:57.000Z,0
2022-11-15T06:07:13.000Z,0
2022-11-15T06:08:30.000Z,0
2022-11-15T06:09:46.000Z,0
2022-11-15T06:11:01.000Z,4
2022-11-15T06:12:17.000Z,0
2022-11-15T06:13:33.000Z,0
2022-11-15T06:14:50.000Z,0
2022-11-15T06:16:06.000Z,4
2022-11-15T06:17:22.000Z,0
2022-11-15T06:18:38.000Z,4
2022-11-15T06:19:54.000Z,4
2022-11-15T06:21:10.000Z,8
2022-11-15T06:22:27.000Z,4
2022-11-15T06:23:43.000Z,8
2022-11-15T06:24:59.000Z,8
2022-11-15T06:26:15.000Z,4
2022-11-15T06:27:30.000Z,8
2022-11-15T06:28:47.000Z,12
2022-11-15T06:30:03.000Z,12
2022-11-15T06:31:19.000Z,16
2022-11-15T06:32:35.000Z,20
2022-11-15T06:33:51.000Z,28
2022-11-15T06:35:08.000Z,36
2022-11-15T06:36:24.000Z,44
2022-11-15T06:37:40.000Z,52
2022-11-15T06:38:56.000Z,52
2022-11-15T06:40:12.000Z,56
2022-11-15T06:41:28.000Z,64
2022-11-15T06:42:45.000Z,68
2022-11-15T06:44:00.000Z,72
2022-11-15T06:45:16.755Z,76
2022-11-15T06:46:32.000Z,76
2022-11-15T06:47:48.000Z,84
2022-11-15T06:49:05.000Z,88
2022-11-15T06:50:21.000Z,96
2022-11-15T06:51:37.000Z,116
2022-11-15T06:52:53.000Z,132
2022-11-15T06:54:09.000Z,144
2022-11-15T06:55:26.000Z,156
2022-11-15T06:56:42.000Z,180
2022-11-15T06:57:58.000Z,204
2022-11-15T06:59:14.000Z,220
2022-11-15T07:00:29.000Z,216
2022-11-15T07:01:45.000Z,196
2022-11-15T07:03:02.000Z,208
2022-11-15T07:04:18.000Z,216
2022-11-15T07:05:34.000Z,216
2022-11-15T07:06:49.000Z,228
2022-11-15T07:08:05.000Z,232
2022-11-15T07:09:22.000Z,204
2022-11-15T07:10:38.000Z,208
2022-11-15T07:11:54.000Z,232
2022-11-15T07:13:10.000Z,264
2022-11-15T07:14:26.000Z,296
2022-11-15T07:15:43.000Z,304
2022-11-15T07:16:59.000Z,236
2022-11-15T07:18:15.000Z,216
2022-11-15T07:19:31.000Z,256
2022-11-15T07:20:47.000Z,296
2022-11-15T07:22:03.000Z,312
2022-11-15T07:23:19.000Z,344
2022-11-15T07:24:35.000Z,384
2022-11-15T07:25:51.000Z,432
2022-11-15T07:27:07.000Z,456
2022-11-15T07:28:23.000Z,472
2022-11-15T07:29:40.000Z,508
2022-11-15T07:30:56.000Z,544
2022-11-15T07:32:12.000Z,588
2022-11-15T07:33:28.000Z,604
2022-11-15T07:34:44.000Z,656
2022-11-15T07:36:01.000Z,788
2022-11-15T07:37:17.494Z,908
2022-11-15T07:38:33.000Z,968
2022-11-15T07:39:48.000Z,948
2022-11-15T07:41:04.000Z,960
2022-11-15T07:42:21.000Z,1060
2022-11-15T07:43:37.000Z,1128
2022-11-15T07:44:53.000Z,1148
2022-11-15T07:46:09.000Z,1044
2022-11-15T07:47:25.000Z,1092
2022-11-15T07:48:41.000Z,1140
2022-11-15T07:49:58.000Z,988
2022-11-15T07:51:14.000Z,980
2022-11-15T07:52:30.000Z,972
2022-11-15T07:53:46.000Z,1052
2022-11-15T07:55:02.000Z,1120
2022-11-15T07:56:18.000Z,1192
2022-11-15T07:57:34.000Z,1296
2022-11-15T07:58:50.000Z,1236
2022-11-15T08:00:06.000Z,1216
2022-11-15T08:01:22.000Z,1172
2022-11-15T08:02:39.000Z,1100
2022-11-15T08:03:55.000Z,1176
2022-11-15T08:05:11.000Z,1084
2022-11-15T08:06:27.000Z,1136
2022-11-15T08:07:43.000Z,1180
2022-11-15T08:08:59.000Z,1288
2022-11-15T08:10:16.000Z,1212
2022-11-15T08:11:32.000Z,1284
2022-11-15T08:12:47.000Z,1364
2022-11-15T08:14:03.000Z,1508
2022-11-15T08:15:19.000Z,1700
2022-11-15T08:16:36.000Z,1740
2022-11-15T08:17:52.000Z,1764
2022-11-15T08:19:08.000Z,1892
2022-11-15T08:20:24.000Z,1940
2022-11-15T08:21:40.000Z,2064
2022-11-15T08:22:57.000Z,2232
2022-11-15T08:24:13.000Z,2520
2022-11-15T08:25:29.000Z,2764
2022-11-15T08:26:45.000Z,2920
2022-11-15T08:28:01.000Z,2928
2022-11-15T08:29:17.000Z,3008
2022-11-15T08:30:33.000Z,3056
2022-11-15T08:31:49.000Z,3292
2022-11-15T08:33:05.000Z,3044
2022-11-15T08:34:21.000Z,2764
2022-11-15T08:35:37.000Z,2824
2022-11-15T08:36:54.000Z,2896
2022-11-15T08:38:10.000Z,3292
2022-11-15T08:39:26.000Z,3596
2022-11-15T08:40:42.000Z,3812
2022-11-15T08:41:58.000Z,3788
2022-11-15T08:43:15.000Z,3912
2022-11-15T08:44:31.000Z,4084
2022-11-15T08:45:46.000Z,4088
2022-11-15T08:47:02.000Z,3928
2022-11-15T08:48:18.000Z,3920
2022-11-15T08:49:35.000Z,3964
2022-11-15T08:50:51.000Z,4040
2022-11-15T08:52:07.000Z,4248
2022-11-15T08:53:23.000Z,4304
2022-11-15T08:54:39.000Z,4492
2022-11-15T08:55:55.000Z,4764
2022-11-15T08:57:12.000Z,5004
2022-11-15T08:58:28.000Z,5128
2022-11-15T08:59:44.000Z,5244
2022-11-15T09:01:00.000Z,5276
2022-11-15T09:02:15.000Z,5440
2022-11-15T09:03:32.000Z,5672
2022-11-15T09:04:48.000Z,5868
2022-11-15T09:06:04.000Z,6024
2022-11-15T09:07:20.000Z,6084
2022-11-15T09:08:36.000Z,6016
2022-11-15T09:09:53.000Z,6076
2022-11-15T09:11:09.000Z,6248
2022-11-15T09:12:25.000Z,6420
2022-11-15T09:13:41.000Z,6520
2022-11-15T09:14:57.000Z,6552
2022-11-15T09:16:13.000Z,6544
2022-11-15T09:17:30.000Z,6552
2022-11-15T09:18:45.000Z,6504
2022-11-15T09:20:01.000Z,6472
2022-11-15T09:21:17.000Z,6396
2022-11-15T09:22:33.000Z,6360
2022-11-15T09:23:50.000Z,6392
2022-11-15T09:25:06.000Z,6464
2022-11-15T09:26:22.000Z,6608
2022-11-15T09:27:38.000Z,6800
2022-11-15T09:28:54.000Z,6808
2022-11-15T09:30:11.000Z,6696
2022-11-15T09:31:27.000Z,6688
2022-11-15T09:32:43.000Z,6904
2022-11-15T09:33:59.000Z,7356
2022-11-15T09:35:14.000Z,7524
2022-11-15T09:36:31.000Z,7536
2022-11-15T09:37:47.000Z,7672
2022-11-15T09:39:03.000Z,7624
2022-11-15T09:40:19.000Z,7724
2022-11-15T09:41:35.000Z,7772
2022-11-15T09:42:51.000Z,8272
2022-11-15T09:44:08.000Z,8164
2022-11-15T09:45:24.000Z,7656
2022-11-15T09:46:40.000Z,7604
2022-11-15T09:47:56.000Z,7648
2022-11-15T09:49:12.000Z,7716
2022-11-15T09:50:29.000Z,7864
2022-11-15T09:51:44.000Z,8208
2022-11-15T09:53:00.000Z,7956
2022-11-15T09:54:16.000Z,8144
2022-11-15T09:55:32.000Z,8592
2022-11-15T09:56:49.000Z,8420
2022-11-15T09:58:05.000Z,8052
2022-11-15T09:59:21.000Z,7928
2022-11-15T10:00:37.000Z,7768
2022-11-15T10:01:53.000Z,7800
2022-11-15T10:03:09.000Z,7956
2022-11-15T10:04:26.000Z,8000
2022-11-15T10:05:42.000Z,8792
2022-11-15T10:06:58.000Z,9292
2022-11-15T10:08:13.000Z,9076
2022-11-15T10:09:29.000Z,8824
2022-11-15T10:10:46.000Z,9100
2022-11-15T10:12:02.000Z,8712
2022-11-15T10:13:18.000Z,8740
2022-11-15T10:14:34.000Z,8956
2022-11-15T10:15:50.000Z,9540
2022-11-15T10:17:07.000Z,10156
2022-11-15T10:18:23.000Z,9964
2022-11-15T10:19:39.000Z,9944
2022-11-15T10:20:55.000Z,11676
2022-11-15T10:22:11.000Z,12472
2022-11-15T10:23:27.000Z,12688
2022-11-15T10:24:43.000Z,11644
2022-11-15T10:25:59.000Z,12784
2022-11-15T10:27:15.000Z,11788
2022-11-15T10:28:31.000Z,11264
2022-11-15T10:29:47.000Z,13040
2022-11-15T10:31:04.000Z,13884
2022-11-15T10:32:20.000Z,13480
2022-11-15T10:33:36.000Z,13544
2022-11-15T10:34:52.000Z,13316
2022-11-15T10:36:08.000Z,13928
2022-11-15T10:37:25.000Z,12404
2022-11-15T10:38:41.000Z,11288
2022-11-15T10:39:57.000Z,13920
2022-11-15T10:41:12.000Z,13872
2022-11-15T10:42:28.000Z,13728
2022-11-15T10:43:44.000Z,11568
2022-11-15T10:45:01.000Z,12148
2022-11-15T10:46:17.000Z,11172
2022-11-15T10:47:33.000Z,9672
2022-11-15T10:48:49.000Z,10044
2022-11-15T10:50:05.000Z,11016
2022-11-15T10:51:22.000Z,11312
2022-11-15T10:52:38.000Z,11180
2022-11-15T10:53:54.000Z,12552
2022-11-15T10:55:10.000Z,14656
2022-11-15T10:56:26.000Z,13976
2022-11-15T10:57:42.000Z,13792
2022-11-15T10:58:58.000Z,11552
2022-11-15T11:00:14.000Z,13996
2022-11-15T11:01:30.000Z,14260
2022-11-15T11:02:46.000Z,14484
2022-11-15T11:04:03.000Z,11648
2022-11-15T11:05:19.000Z,8580
2022-11-15T11:06:35.000Z,7992
2022-11-15T11:07:51.000Z,7724
2022-11-15T11:09:07.000Z,7416
2022-11-15T11:10:23.000Z,7424
2022-11-15T11:11:40.000Z,7108
2022-11-15T11:12:56.000Z,7272
2022-11-15T11:14:11.000Z,7628
2022-11-15T11:15:27.000Z,7652
2022-11-15T11:16:43.000Z,7308
2022-11-15T11:18:00.000Z,7020
2022-11-15T11:19:16.000Z,6840
2022-11-15T11:20:32.000Z,6912
2022-11-15T11:21:47.000Z,6664
2022-11-15T11:23:03.000Z,6652
2022-11-15T11:24:20.000Z,6832
2022-11-15T11:25:36.000Z,6892
2022-11-15T11:26:52.000Z,6656
2022-11-15T11:28:08.000Z,6556
2022-11-15T11:29:24.000Z,6492
2022-11-15T11:30:40.000Z,6376
2022-11-15T11:31:57.000Z,6196
2022-11-15T11:33:13.000Z,5956
2022-11-15T11:34:29.000Z,6248
2022-11-15T11:35:45.000Z,6664
2022-11-15T11:37:01.000Z,6612
2022-11-15T11:38:17.000Z,6628
2022-11-15T11:39:33.000Z,6684
2022-11-15T11:40:49.000Z,5388
2022-11-15T11:42:05.000Z,6372
2022-11-15T11:43:21.000Z,7316
2022-11-15T11:44:38.000Z,7336
2022-11-15T11:45:54.000Z,7328
2022-11-15T11:47:10.000Z,7120
2022-11-15T11:48:26.000Z,7072
2022-11-15T11:49:42.000Z,7124
2022-11-15T11:50:58.000Z,7124
2022-11-15T11:52:15.000Z,7160
2022-11-15T11:53:31.000Z,7264
2022-11-15T11:54:46.000Z,7600
2022-11-15T11:56:02.000Z,9424
2022-11-15T11:57:18.000Z,11924
2022-11-15T11:58:35.000Z,11888
2022-11-15T11:59:51.000Z,10868
2022-11-15T12:01:07.000Z,9956
2022-11-15T12:02:23.917Z,10052
2022-11-15T12:03:39.000Z,11796
2022-11-15T12:04:56.000Z,12808
2022-11-15T12:06:12.000Z,12404
2022-11-15T12:07:28.000Z,13240
2022-11-15T12:08:44.000Z,14556
2022-11-15T12:10:00.000Z,14416
2022-11-15T12:11:16.000Z,15084
2022-11-15T12:12:32.000Z,13760
2022-11-15T12:13:48.000Z,14040
2022-11-15T12:15:04.000Z,13624
2022-11-15T12:16:20.000Z,13484
2022-11-15T12:17:36.000Z,11512
2022-11-15T12:18:53.000Z,11412
2022-11-15T12:20:09.000Z,12056
2022-11-15T12:21:25.000Z,10520
2022-11-15T12:22:41.000Z,11408
2022-11-15T12:23:57.000Z,13204
2022-11-15T12:25:14.000Z,13024
2022-11-15T12:26:30.000Z,12488
2022-11-15T12:27:45.000Z,11856
2022-11-15T12:29:01.000Z,11712
2022-11-15T12:30:17.000Z,11564
2022-11-15T12:31:34.000Z,11360
2022-11-15T12:32:50.000Z,11932
2022-11-15T12:34:06.000Z,11276
2022-11-15T12:35:22.000Z,9808
2022-11-15T12:36:38.000Z,10248
2022-11-15T12:37:54.000Z,10500
2022-11-15T12:39:11.000Z,10664
2022-11-15T12:40:27.000Z,10896
2022-11-15T12:41:43.000Z,9984
2022-11-15T12:42:59.000Z,8096
2022-11-15T12:44:14.000Z,8300
2022-11-15T12:45:31.000Z,9240
2022-11-15T12:46:47.000Z,9272
2022-11-15T12:48:03.000Z,9172
2022-11-15T12:49:19.000Z,9124
2022-11-15T12:50:35.000Z,9156
2022-11-15T12:51:52.000Z,9132
2022-11-15T12:53:08.000Z,8084
2022-11-15T12:54:24.000Z,7932
2022-11-15T12:55:40.000Z,7812
2022-11-15T12:56:56.000Z,8332
2022-11-15T12:58:12.000Z,9204
2022-11-15T12:59:29.000Z,9988
2022-11-15T13:00:44.000Z,10044
2022-11-15T13:02:00.000Z,9848
2022-11-15T13:03:16.000Z,9596
2022-11-15T13:04:32.000Z,9856
2022-11-15T13:05:49.000Z,9364
2022-11-15T13:07:05.000Z,6968
2022-11-15T13:08:21.000Z,8296
2022-11-15T13:09:37.000Z,9944
2022-11-15T13:10:53.000Z,8980
2022-11-15T13:12:10.000Z,10888
2022-11-15T13:13:26.000Z,11288
2022-11-15T13:14:42.000Z,11416
2022-11-15T13:15:58.000Z,10632
2022-11-15T13:17:13.000Z,9636
2022-11-15T13:18:29.000Z,9052
2022-11-15T13:19:46.000Z,9084
2022-11-15T13:21:02.000Z,9292
2022-11-15T13:22:18.000Z,9660
2022-11-15T13:23:34.000Z,9224
2022-11-15T13:24:50.000Z,9364
2022-11-15T13:26:07.000Z,9348
2022-11-15T13:27:23.000Z,9396
2022-11-15T13:28:39.000Z,9896
2022-11-15T13:29:55.000Z,10752
2022-11-15T13:31:11.000Z,10540
2022-11-15T13:32:28.000Z,8368
2022-11-15T13:33:43.000Z,8208
2022-11-15T13:34:59.000Z,10168
2022-11-15T13:36:15.000Z,12216
2022-11-15T13:37:31.000Z,13280
2022-11-15T13:38:48.000Z,12852
2022-11-15T13:40:04.000Z,11640
2022-11-15T13:41:20.000Z,11012
2022-11-15T13:42:36.000Z,10808
2022-11-15T13:43:52.000Z,11360
2022-11-15T13:45:08.000Z,11216
2022-11-15T13:46:25.000Z,12032
2022-11-15T13:47:41.000Z,11980
2022-11-15T13:48:57.000Z,11780
2022-11-15T13:50:12.000Z,12208
2022-11-15T13:51:28.000Z,12008
2022-11-15T13:52:45.000Z,12272
2022-11-15T13:54:01.000Z,11588
2022-11-15T13:55:17.000Z,11164
2022-11-15T13:56:33.000Z,9816
2022-11-15T13:57:49.000Z,7492
2022-11-15T13:59:06.000Z,5628
2022-11-15T14:00:22.000Z,5416
2022-11-15T14:01:38.000Z,5856
2022-11-15T14:02:54.000Z,5780
2022-11-15T14:04:10.000Z,5540
2022-11-15T14:05:26.000Z,5244
2022-11-15T14:06:42.000Z,4960
2022-11-15T14:07:58.000Z,4812
2022-11-15T14:09:14.000Z,4824
2022-11-15T14:10:30.000Z,4744
2022-11-15T14:11:46.000Z,4716
2022-11-15T14:13:03.000Z,4680
2022-11-15T14:14:19.000Z,4620
2022-11-15T14:15:35.000Z,4592
2022-11-15T14:16:51.000Z,4392
2022-11-15T14:18:07.000Z,4284
2022-11-15T14:19:24.000Z,4112
2022-11-15T14:20:40.000Z,4028
2022-11-15T14:21:56.000Z,3904
2022-11-15T14:23:11.000Z,3704
2022-11-15T14:24:27.000Z,3440
2022-11-15T14:25:43.000Z,3196
2022-11-15T14:27:00.000Z,2928
2022-11-15T14:28:16.000Z,2748
2022-11-15T14:29:32.000Z,2648
2022-11-15T14:30:48.000Z,2592
2022-11-15T14:32:04.000Z,2572
2022-11-15T14:33:21.000Z,2664
2022-11-15T14:34:37.000Z,2772
2022-11-15T14:35:53.000Z,2612
2022-11-15T14:37:09.000Z,2424
2022-11-15T14:38:25.000Z,2364
2022-11-15T14:39:41.000Z,2316
2022-11-15T14:40:57.000Z,2284
2022-11-15T14:42:13.000Z,2276
2022-11-15T14:43:29.000Z,2324
2022-11-15T14:44:45.000Z,2248
2022-11-15T14:46:02.000Z,2240
2022-11-15T14:47:18.000Z,2216
2022-11-15T14:48:34.000Z,2092
2022-11-15T14:49:50.000Z,1984
2022-11-15T14:51:06.000Z,1912
2022-11-15T14:52:22.000Z,1844
2022-11-15T14:53:39.000Z,1768
2022-11-15T14:54:55.000Z,1684
2022-11-15T14:56:10.000Z,1604
2022-11-15T14:57:26.000Z,1524
2022-11-15T14:58:42.000Z,1444
2022-11-15T14:59:59.000Z,1376
2022-11-15T15:01:15.000Z,1324
2022-11-15T15:02:31.000Z,1256
2022-11-15T15:03:47.000Z,1200
2022-11-15T15:05:03.000Z,1148
2022-11-15T15:06:20.000Z,1092
2022-11-15T15:07:36.000Z,1052
2022-11-15T15:08:52.000Z,1008
2022-11-15T15:10:08.000Z,960
2022-11-15T15:11:24.000Z,916
2022-11-15T15:12:40.000Z,864
2022-11-15T15:13:56.000Z,816
2022-11-15T15:15:12.000Z,772
2022-11-15T15:16:28.806Z,736
2022-11-15T15:17:44.000Z,692
2022-11-15T15:19:00.000Z,644
2022-11-15T15:20:17.000Z,604
2022-11-15T15:21:33.000Z,560
2022-11-15T15:22:49.000Z,516
2022-11-15T15:24:05.000Z,472
2022-11-15T15:25:21.000Z,432
2022-11-15T15:26:38.000Z,396
2022-11-15T15:27:54.000Z,364
2022-11-15T15:29:09.000Z,332
2022-11-15T15:30:25.000Z,308
2022-11-15T15:31:41.000Z,284
2022-11-15T15:32:58.000Z,260
2022-11-15T15:34:14.000Z,240
2022-11-15T15:35:30.000Z,220
2022-11-15T15:36:45.000Z,192
2022-11-15T15:38:01.000Z,176
2022-11-15T15:39:18.000Z,160
2022-11-15T15:40:34.000Z,144
2022-11-15T15:41:50.000Z,128
2022-11-15T15:43:06.000Z,116
2022-11-15T15:44:22.000Z,108
2022-11-15T15:45:38.000Z,96
2022-11-15T15:46:55.000Z,84
2022-11-15T15:48:11.000Z,76
2022-11-15T15:49:27.000Z,64
2022-11-15T15:50:43.000Z,56
2022-11-15T15:51:59.000Z,48
2022-11-15T15:53:15.000Z,44
2022-11-15T15:54:31.000Z,40
2022-11-15T15:55:47.000Z,28
2022-11-15T15:57:03.000Z,28
2022-11-15T15:58:19.000Z,20
2022-11-15T15:59:36.000Z,16
2022-11-15T16:00:52.000Z,16
2022-11-15T16:02:08.000Z,12
2022-11-15T16:03:24.000Z,8
2022-11-15T16:04:40.000Z,8
2022-11-15T16:05:56.000Z,4
2022-11-15T16:07:13.000Z,4
2022-11-15T16:08:29.000Z,4
2022-11-15T16:09:44.000Z,4
2022-11-15T16:11:00.000Z,4
2022-11-15T16:12:16.000Z,0
2022-11-15T16:13:33.000Z,0
2022-11-15T16:14:49.000Z,0
2022-11-15T16:16:05.000Z,0
2022-11-15T16:17:21.000Z,0
2022-11-15T16:18:37.000Z,0
2022-11-15T16:19:54.000Z,0
2022-11-15T16:21:10.000Z,0
2022-11-15T16:22:26.000Z,0
2022-11-15T16:23:42.000Z,0
2022-11-15T16:24:58.000Z,0
2022-11-15T16:26:14.000Z,0
2022-11-15T16:27:30.000Z,0
2022-11-15T16:28:46.000Z,0
2022-11-15T16:30:02.000Z,0
2022-11-15T16:31:18.000Z,0
2022-11-15T16:32:34.000Z,0
2022-11-15T16:33:51.000Z,0
2022-11-15T16:35:07.000Z,0
2022-11-15T16:36:23.000Z,0
2022-11-15T16:37:39.000Z,0
2022-11-15T16:38:55.000Z,0
2022-11-15T16:40:12.000Z,0
2022-11-15T16:41:28.000Z,0
2022-11-15T16:42:43.000Z,0
2022-11-15T16:43:59.000Z,0
2022-11-15T16:45:15.000Z,0
2022-11-15T16:46:32.000Z,0
2022-11-15T16:47:48.000Z,0
2022-11-15T16:49:04.000Z,0
2022-11-15T16:50:20.000Z,0
2022-11-15T16:51:36.000Z,0
2022-11-15T16:52:53.000Z,0
2022-11-15T16:54:09.000Z,0
2022-11-15T16:55:25.000Z,0
2022-11-15T16:56:41.000Z,0
2022-11-15T16:57:57.000Z,0
2022-11-15T16:59:12.000Z,0
2022-11-15T17:00:29.000Z,0
2022-11-15T17:01:45.000Z,0
2022-11-15T17:03:01.000Z,0
2022-11-15T17:04:17.000Z,0
2022-11-15T17:05:33.000Z,0
2022-11-15T17:06:50.000Z,0
2022-11-15T17:08:06.000Z,0
2022-11-15T17:09:22.000Z,0
2022-11-15T17:10:38.000Z,0
2022-11-15T17:11:54.000Z,0
2022-11-15T17:13:11.000Z,0
2022-11-15T17:14:27.000Z,0
2022-11-15T17:15:42.000Z,0
2022-11-15T17:16:58.000Z,0
2022-11-15T17:18:14.000Z,0
2022-11-15T17:19:31.000Z,0
2022-11-15T17:20:47.000Z,0
2022-11-15T17:22:03.000Z,0
2022-11-15T17:23:19.000Z,0
2022-11-15T17:24:35.000Z,0
2022-11-15T17:25:51.000Z,0
2022-11-15T17:27:08.000Z,0
2022-11-15T17:28:24.000Z,0
2022-11-15T17:29:40.000Z,0
2022-11-15T17:30:56.000Z,0
2022-11-15T17:32:11.000Z,0
2022-11-15T17:33:28.000Z,0
2022-11-15T17:34:44.000Z,0
2022-11-15T17:36:00.000Z,0
2022-11-15T17:37:16.000Z,0
2022-11-15T17:38:32.000Z,0
2022-11-15T17:39:49.000Z,0
2022-11-15T17:41:05.000Z,0
2022-11-15T17:42:21.000Z,0
2022-11-15T17:43:37.000Z,0